createdAt,value
2018-03-15T00:01:59.303Z,10.10
2018-03-15T00:04:32.244Z,10.40
2018-03-15T00:06:59.635Z,11.43
2018-03-15T00:09:27.018Z,11.07
2018-03-15T00:11:53.719Z,10.57
2018-03-15T00:14:21.107Z,10.73
2018-03-15T00:16:48.508Z,10.37
2018-03-15T00:19:15.903Z,10.50
2018-03-15T00:21:43.325Z,10.80
2018-03-15T00:24:10.769Z,11.07
2018-03-15T00:26:38.172Z,11.10
2018-03-15T00:29:05.591Z,9.97
2018-03-15T00:31:33.000Z,10.77
2018-03-15T00:34:00.410Z,9.77
2018-03-15T00:36:27.795Z,11.93
2018-03-15T00:38:55.202Z,10.50
2018-03-15T00:41:22.591Z,11.93
2018-03-15T00:43:49.991Z,11.13
2018-03-15T00:46:17.403Z,10.43
2018-03-15T00:48:44.815Z,11.23
2018-03-15T00:51:12.228Z,10.87
2018-03-15T00:53:39.841Z,11.13
2018-03-15T00:56:07.235Z,10.67
2018-03-15T00:58:34.628Z,11.23
2018-03-15T01:01:02.037Z,11.90
2018-03-15T01:03:29.423Z,11.50
2018-03-15T01:05:56.831Z,12.67
2018-03-15T01:08:24.224Z,11.03
2018-03-15T01:10:51.625Z,10.87
2018-03-15T01:13:19.019Z,13.53
2018-03-15T01:15:46.418Z,13.20
2018-03-15T01:18:13.815Z,12.33
2018-03-15T01:20:41.211Z,13.03
2018-03-15T01:23:08.615Z,13.63
2018-03-15T01:25:36.004Z,14.20
2018-03-15T01:28:03.390Z,13.53
2018-03-15T01:30:30.798Z,13.73
2018-03-15T01:32:58.191Z,13.93
2018-03-15T01:35:25.583Z,13.27
2018-03-15T01:37:52.986Z,13.73
2018-03-15T01:40:20.382Z,12.97
2018-03-15T01:42:48.071Z,13.60
2018-03-15T01:45:15.760Z,12.50
2018-03-15T01:47:43.155Z,15.03
2018-03-15T01:50:10.560Z,15.93
2018-03-15T01:52:37.955Z,15.03
2018-03-15T01:55:05.363Z,13.63
2018-03-15T01:57:32.828Z,16.00
2018-03-15T02:00:00.257Z,14.00
2018-03-15T02:02:27.927Z,16.17
2018-03-15T02:04:55.318Z,14.90
2018-03-15T02:07:22.710Z,15.80
2018-03-15T02:09:50.111Z,16.97
2018-03-15T02:12:17.498Z,17.33
2018-03-15T02:14:44.907Z,15.90
2018-03-15T02:17:12.296Z,16.43
2018-03-15T02:19:39.687Z,16.37
2018-03-15T02:22:07.091Z,15.90
2018-03-15T02:24:34.496Z,14.60
2018-03-15T02:27:01.889Z,17.23
2018-03-15T02:29:29.291Z,15.77
2018-03-15T02:31:56.675Z,16.27
2018-03-15T02:34:24.080Z,17.17
2018-03-15T02:36:51.470Z,16.40
2018-03-15T02:39:18.860Z,17.43
2018-03-15T02:41:46.262Z,15.50
2018-03-15T02:44:13.663Z,15.27
2018-03-15T02:46:41.064Z,16.37
2018-03-15T02:49:08.463Z,17.50
2018-03-15T02:51:35.863Z,18.33
2018-03-15T02:54:03.258Z,18.10
2018-03-15T02:56:30.660Z,17.00
2018-03-15T02:58:58.047Z,18.70
2018-03-15T03:01:25.453Z,17.93
2018-03-15T03:03:52.836Z,19.67
2018-03-15T03:06:20.239Z,19.07
2018-03-15T03:08:47.642Z,18.80
2018-03-15T03:11:15.072Z,18.73
2018-03-15T03:13:42.471Z,20.47
2018-03-15T03:16:09.987Z,18.53
2018-03-15T03:18:37.371Z,18.77
2018-03-15T03:21:04.775Z,19.53
2018-03-15T03:23:32.163Z,19.90
2018-03-15T03:25:59.569Z,20.10
2018-03-15T03:28:26.970Z,20.03
2018-03-15T03:30:54.397Z,19.60
2018-03-15T03:33:21.775Z,18.20
2018-03-15T03:35:49.328Z,20.13
2018-03-15T03:38:16.744Z,22.00
2018-03-15T03:40:44.143Z,22.07
2018-03-15T03:43:11.563Z,21.17
2018-03-15T03:45:38.960Z,19.20
2018-03-15T03:48:06.385Z,20.80
2018-03-15T03:50:33.786Z,20.87
2018-03-15T03:53:01.178Z,21.53
2018-03-15T03:55:28.684Z,20.93
2018-03-15T03:57:56.087Z,22.30
2018-03-15T04:00:23.481Z,21.77
2018-03-15T04:02:51.083Z,21.03
2018-03-15T04:05:18.473Z,22.17
2018-03-15T04:07:45.871Z,23.00
2018-03-15T04:10:13.259Z,24.03
2018-03-15T04:12:40.664Z,21.97
2018-03-15T04:15:08.068Z,23.30
2018-03-15T04:17:35.455Z,25.10
2018-03-15T04:20:02.859Z,25.07
2018-03-15T04:22:30.243Z,23.93
2018-03-15T04:24:57.631Z,26.53
2018-03-15T04:27:25.045Z,23.83
2018-03-15T04:29:52.448Z,25.87
2018-03-15T04:32:19.838Z,25.23
2018-03-15T04:34:47.240Z,25.77
2018-03-15T04:37:14.634Z,24.07
2018-03-15T04:39:42.037Z,25.30
2018-03-15T04:42:09.417Z,24.50
2018-03-15T04:44:36.822Z,23.37
2018-03-15T04:47:04.204Z,24.50
2018-03-15T04:49:31.611Z,24.53
2018-03-15T04:51:59.007Z,24.67
2018-03-15T04:54:26.403Z,23.60
2018-03-15T04:56:53.798Z,22.23
2018-03-15T04:59:21.199Z,24.13
2018-03-15T05:01:48.595Z,23.57
2018-03-15T05:04:16.003Z,21.90
2018-03-15T05:06:43.435Z,22.87
2018-03-15T05:09:10.876Z,23.70
2018-03-15T05:11:38.275Z,22.77
2018-03-15T05:14:05.700Z,21.97
2018-03-15T05:16:33.338Z,19.80
2018-03-15T05:19:00.748Z,23.27
2018-03-15T05:21:28.135Z,22.37
2018-03-15T05:23:55.555Z,21.47
2018-03-15T05:26:22.954Z,22.40
2018-03-15T05:28:50.349Z,23.50
2018-03-15T05:31:17.747Z,21.57
2018-03-15T05:33:45.142Z,22.17
2018-03-15T05:36:12.659Z,22.67
2018-03-15T05:38:39.939Z,21.07
2018-03-15T05:41:07.328Z,21.47
2018-03-15T05:43:34.723Z,22.93
2018-03-15T05:46:02.106Z,21.50
2018-03-15T05:48:29.507Z,22.23
2018-03-15T05:50:56.898Z,23.40
2018-03-15T05:53:24.298Z,22.30
2018-03-15T05:55:51.682Z,22.00
2018-03-15T05:58:19.092Z,22.40
2018-03-15T06:00:46.500Z,22.13
2018-03-15T06:03:13.883Z,21.50
2018-03-15T06:05:41.275Z,22.60
2018-03-15T06:08:08.676Z,23.40
2018-03-15T06:10:36.067Z,22.63
2018-03-15T06:13:03.468Z,21.70
2018-03-15T06:15:30.853Z,23.67
2018-03-15T06:17:58.260Z,21.33
2018-03-15T06:20:25.642Z,21.53
2018-03-15T06:22:53.036Z,21.97
2018-03-15T06:25:20.447Z,21.60
2018-03-15T06:27:47.833Z,22.63
2018-03-15T06:30:15.226Z,21.77
2018-03-15T06:32:42.804Z,22.07
2018-03-15T06:35:11.120Z,22.17
2018-03-15T06:37:38.501Z,24.00
2018-03-15T06:40:05.911Z,21.70
2018-03-15T06:42:33.308Z,20.43
2018-03-15T06:45:00.729Z,20.10
2018-03-15T06:47:28.103Z,18.73
2018-03-15T06:49:55.507Z,22.27
2018-03-15T06:52:22.901Z,19.33
2018-03-15T06:54:50.305Z,19.33
2018-03-15T06:57:17.711Z,19.30
2018-03-15T06:59:45.114Z,20.37
2018-03-15T07:02:13.378Z,20.67
2018-03-15T07:04:40.795Z,19.80
2018-03-15T07:07:08.207Z,21.87
2018-03-15T07:09:35.615Z,18.73
2018-03-15T07:12:03.029Z,18.93
2018-03-15T07:14:30.442Z,22.77
2018-03-15T07:16:57.983Z,20.63
2018-03-15T07:19:25.387Z,20.73
2018-03-15T07:21:52.775Z,18.63
2018-03-15T07:24:20.396Z,21.97
2018-03-15T07:26:47.828Z,19.17
2018-03-15T07:29:15.248Z,19.47
2018-03-15T07:31:42.676Z,21.47
2018-03-15T07:34:10.112Z,18.97
2018-03-15T07:36:37.498Z,20.77
2018-03-15T07:39:04.885Z,20.03
2018-03-15T07:41:32.298Z,22.70
2018-03-15T07:43:59.707Z,19.43
2018-03-15T07:46:27.107Z,23.30
2018-03-15T07:48:54.516Z,20.50
2018-03-15T07:51:21.911Z,23.97
2018-03-15T07:53:49.464Z,20.90
2018-03-15T07:56:16.864Z,21.27
2018-03-15T07:58:44.247Z,21.30
2018-03-15T08:01:11.647Z,21.27
2018-03-15T08:03:39.049Z,20.77
2018-03-15T08:06:06.452Z,24.33
2018-03-15T08:08:33.847Z,21.33
2018-03-15T08:11:01.248Z,22.03
2018-03-15T08:13:28.647Z,23.67
2018-03-15T08:15:56.051Z,20.40
2018-03-15T08:18:23.443Z,23.67
2018-03-15T08:20:50.832Z,20.57
2018-03-15T08:23:18.240Z,24.93
2018-03-15T08:25:45.631Z,21.83
2018-03-15T08:28:13.028Z,23.97
2018-03-15T08:30:40.423Z,21.43
2018-03-15T08:33:07.829Z,22.17
2018-03-15T08:35:35.219Z,22.47
2018-03-15T08:38:02.886Z,21.10
2018-03-15T08:40:30.282Z,24.13
2018-03-15T08:42:57.667Z,23.77
2018-03-15T08:45:25.092Z,22.80
2018-03-15T08:47:52.483Z,23.67
2018-03-15T08:50:19.874Z,24.17
2018-03-15T08:52:47.271Z,23.20
2018-03-15T08:55:14.674Z,23.33
2018-03-15T08:57:42.084Z,23.47
2018-03-15T09:00:09.475Z,20.90
2018-03-15T09:02:36.866Z,21.17
2018-03-15T09:05:04.263Z,23.50
2018-03-15T09:07:31.750Z,20.37
2018-03-15T09:09:59.059Z,19.63
2018-03-15T09:12:26.462Z,22.43
2018-03-15T09:14:53.871Z,19.57
2018-03-15T09:17:21.275Z,22.03
2018-03-15T09:19:48.681Z,18.27
2018-03-15T09:22:16.072Z,18.70
2018-03-15T09:24:43.471Z,20.70
2018-03-15T09:27:10.872Z,18.27
2018-03-15T09:29:38.276Z,18.93
2018-03-15T09:32:05.713Z,21.43
2018-03-15T09:34:33.567Z,19.20
2018-03-15T09:37:00.887Z,17.73
2018-03-15T09:39:28.275Z,19.87
2018-03-15T09:41:55.697Z,16.87
2018-03-15T09:44:23.080Z,19.87
2018-03-15T09:46:50.487Z,17.57
2018-03-15T09:49:17.879Z,20.97
2018-03-15T09:51:45.295Z,20.33
2018-03-15T09:54:12.692Z,22.33
2018-03-15T09:56:40.436Z,20.63
2018-03-15T09:59:07.865Z,22.20
2018-03-15T10:01:35.244Z,18.90
2018-03-15T10:04:02.709Z,22.07
2018-03-15T10:06:30.090Z,20.70
2018-03-15T10:08:57.504Z,22.87
2018-03-15T10:11:24.890Z,24.00
2018-03-15T10:13:52.295Z,23.80
2018-03-15T10:16:19.755Z,24.73
2018-03-15T10:18:47.215Z,24.97
2018-03-15T10:21:14.614Z,23.53
2018-03-15T10:23:42.046Z,25.27
2018-03-15T10:26:09.677Z,25.00
2018-03-15T10:28:37.123Z,25.27
2018-03-15T10:31:04.524Z,26.03
2018-03-15T10:33:37.763Z,25.17
2018-03-15T10:36:05.164Z,24.03
2018-03-15T10:38:32.554Z,24.03
2018-03-15T10:40:59.945Z,23.73
2018-03-15T10:43:27.356Z,24.63
2018-03-15T10:45:54.743Z,23.10
2018-03-15T10:48:22.252Z,24.27
2018-03-15T10:50:49.641Z,23.70
2018-03-15T10:53:17.038Z,24.03
2018-03-15T10:55:44.462Z,24.03
2018-03-15T10:58:12.167Z,23.33
2018-03-15T11:03:50.527Z,20.70
2018-03-15T11:06:23.618Z,23.93
2018-03-15T11:08:56.691Z,23.03
2018-03-15T11:11:24.085Z,21.27
2018-03-15T11:13:51.483Z,26.27
2018-03-15T11:16:18.913Z,21.70
2018-03-15T11:18:46.307Z,24.40
2018-03-15T11:21:13.701Z,24.93
2018-03-15T11:23:41.114Z,22.47
2018-03-15T11:26:08.499Z,23.97
2018-03-15T11:28:35.904Z,25.33
2018-03-15T11:31:03.295Z,21.70
2018-03-15T11:33:30.702Z,25.23
2018-03-15T11:35:58.095Z,20.00
2018-03-15T11:38:25.503Z,22.17
2018-03-15T11:40:52.912Z,19.03
2018-03-15T11:43:20.320Z,22.23
2018-03-15T11:45:47.725Z,19.67
2018-03-15T11:48:15.111Z,20.53
2018-03-15T11:50:42.838Z,19.63
2018-03-15T11:53:10.185Z,20.63
2018-03-15T11:55:37.594Z,19.67
2018-03-15T11:58:04.987Z,20.97
2018-03-15T12:00:32.399Z,22.80
2018-03-15T12:02:59.791Z,19.33
2018-03-15T12:05:27.207Z,19.30
2018-03-15T12:07:54.608Z,19.90
2018-03-15T12:10:22.019Z,17.77
2018-03-15T12:12:49.412Z,20.37
2018-03-15T12:15:16.889Z,18.93
2018-03-15T12:17:44.303Z,20.77
2018-03-15T12:20:11.776Z,19.67
2018-03-15T12:22:39.174Z,21.70
2018-03-15T12:25:06.580Z,23.10
2018-03-15T12:27:33.992Z,20.27
2018-03-15T12:30:01.404Z,16.93
2018-03-15T12:32:28.812Z,19.23
2018-03-15T12:34:56.224Z,17.40
2018-03-15T12:37:23.615Z,21.10
2018-03-15T12:39:51.027Z,19.93
2018-03-15T12:42:18.476Z,22.30
2018-03-15T12:44:45.900Z,20.10
2018-03-15T12:47:13.319Z,21.77
2018-03-15T12:49:40.742Z,21.23
2018-03-15T12:52:08.147Z,22.63
2018-03-15T12:54:35.547Z,18.70
2018-03-15T12:57:02.962Z,24.20
2018-03-15T12:59:30.347Z,18.67
2018-03-15T13:01:57.765Z,22.70
2018-03-15T13:04:25.164Z,19.40
2018-03-15T13:06:52.583Z,23.33
2018-03-15T13:09:19.972Z,23.60
2018-03-15T13:11:47.410Z,22.53
2018-03-15T13:14:14.834Z,22.93
2018-03-15T13:16:42.359Z,26.23
2018-03-15T13:19:09.782Z,22.80
2018-03-15T13:21:37.156Z,24.10
2018-03-15T13:24:04.561Z,21.70
2018-03-15T13:26:31.959Z,22.93
2018-03-15T13:28:59.375Z,26.23
2018-03-15T13:31:26.772Z,25.80
2018-03-15T13:33:54.163Z,23.67
2018-03-15T13:36:21.580Z,24.47
2018-03-15T13:38:48.988Z,21.23
2018-03-15T13:41:16.413Z,26.00
2018-03-15T13:43:43.845Z,21.63
2018-03-15T13:46:11.278Z,25.60
2018-03-15T13:48:38.888Z,22.37
2018-03-15T13:51:06.302Z,22.23
2018-03-15T13:53:33.712Z,25.67
2018-03-15T13:56:01.124Z,22.63
2018-03-15T13:58:28.525Z,26.17
2018-03-15T14:00:55.927Z,22.33
2018-03-15T14:03:23.327Z,26.03
2018-03-15T14:05:50.744Z,22.80
2018-03-15T14:08:18.171Z,23.37
2018-03-15T14:10:45.597Z,22.33
2018-03-15T14:13:13.031Z,25.33
2018-03-15T14:15:40.492Z,24.23
2018-03-15T14:18:07.896Z,23.97
2018-03-15T14:20:35.295Z,26.33
2018-03-15T14:23:02.733Z,23.17
2018-03-15T14:25:30.133Z,26.70
2018-03-15T14:27:57.534Z,26.83
2018-03-15T14:30:24.927Z,23.53
2018-03-15T14:32:52.341Z,23.57
2018-03-15T14:35:19.740Z,22.83
2018-03-15T14:37:47.163Z,23.80
2018-03-15T14:40:14.588Z,23.03
2018-03-15T14:42:42.012Z,22.97
2018-03-15T14:45:09.440Z,22.47
2018-03-15T14:47:36.832Z,27.23
2018-03-15T14:50:04.263Z,23.00
2018-03-15T14:52:31.656Z,25.70
2018-03-15T14:54:59.071Z,22.67
2018-03-15T14:57:26.466Z,22.67
2018-03-15T14:59:53.872Z,25.80
2018-03-15T15:02:21.267Z,23.73
2018-03-15T15:04:48.675Z,26.43
2018-03-15T15:07:16.066Z,22.67
2018-03-15T15:09:43.479Z,23.83
2018-03-15T15:12:10.880Z,25.33
2018-03-15T15:14:38.280Z,29.37
2018-03-15T15:17:05.791Z,25.90
2018-03-15T15:19:33.196Z,24.80
2018-03-15T15:22:00.591Z,29.07
2018-03-15T15:24:27.992Z,24.77
2018-03-15T15:26:55.388Z,27.43
2018-03-15T15:29:22.800Z,25.33
2018-03-15T15:31:50.187Z,25.63
2018-03-15T15:34:17.744Z,26.80
2018-03-15T15:36:45.144Z,24.57
2018-03-15T15:39:12.562Z,23.67
2018-03-15T15:41:40.268Z,27.50
2018-03-15T15:44:07.673Z,23.23
2018-03-15T15:46:35.095Z,25.27
2018-03-15T15:49:02.561Z,20.87
2018-03-15T15:51:29.955Z,24.20
2018-03-15T15:53:57.355Z,24.00
2018-03-15T15:56:24.891Z,21.90
2018-03-15T15:58:52.330Z,24.07
2018-03-15T16:01:19.700Z,22.33
2018-03-15T16:03:47.213Z,24.47
2018-03-15T16:06:14.631Z,22.57
2018-03-15T16:08:42.056Z,24.80
2018-03-15T16:11:09.478Z,26.57
2018-03-15T16:13:36.880Z,24.80
2018-03-15T16:16:04.535Z,22.03
2018-03-15T16:18:31.940Z,27.23
2018-03-15T16:20:59.343Z,22.97
2018-03-15T16:23:26.756Z,22.17
2018-03-15T16:25:54.172Z,26.17
2018-03-15T16:28:21.571Z,27.40
2018-03-15T16:30:48.973Z,22.20
2018-03-15T16:33:16.398Z,24.57
2018-03-15T16:35:43.799Z,24.40
2018-03-15T16:38:11.204Z,22.13
2018-03-15T16:40:38.598Z,25.73
2018-03-15T16:43:06.021Z,22.40
2018-03-15T16:45:33.583Z,27.40
2018-03-15T16:48:00.979Z,26.17
2018-03-15T16:50:28.388Z,23.13
2018-03-15T16:52:55.943Z,24.50
2018-03-15T16:55:23.348Z,24.63
2018-03-15T16:57:50.743Z,26.03
2018-03-15T17:00:18.174Z,26.30
2018-03-15T17:02:45.594Z,24.43
2018-03-15T17:05:13.336Z,26.60
2018-03-15T17:07:40.768Z,26.77
2018-03-15T17:10:08.167Z,26.43
2018-03-15T17:12:35.583Z,27.03
2018-03-15T17:15:02.992Z,25.67
2018-03-15T17:17:30.395Z,27.73
2018-03-15T17:19:57.813Z,23.23
2018-03-15T17:22:25.210Z,26.20
2018-03-15T17:24:52.766Z,27.70
2018-03-15T17:27:20.165Z,27.17
2018-03-15T17:29:47.598Z,27.73
2018-03-15T17:32:15.054Z,26.13
2018-03-15T17:34:42.517Z,25.33
2018-03-15T17:37:09.923Z,25.53
2018-03-15T17:39:37.468Z,22.90
2018-03-15T17:42:04.863Z,24.17
2018-03-15T17:44:32.259Z,25.23
2018-03-15T17:46:59.780Z,26.47
2018-03-15T17:49:27.160Z,21.47
2018-03-15T17:51:54.571Z,24.90
2018-03-15T17:54:21.971Z,26.73
2018-03-15T17:56:49.404Z,25.77
2018-03-15T17:59:16.807Z,27.50
2018-03-15T18:01:44.247Z,27.33
2018-03-15T18:04:11.688Z,28.77
2018-03-15T18:06:39.112Z,29.07
2018-03-15T18:09:06.520Z,28.23
2018-03-15T18:11:33.926Z,30.80
2018-03-15T18:14:01.323Z,29.07
2018-03-15T18:16:28.735Z,28.50
2018-03-15T18:18:56.139Z,28.67
2018-03-15T18:21:23.566Z,30.73
2018-03-15T18:23:50.968Z,27.83
2018-03-15T18:26:18.430Z,29.90
2018-03-15T18:28:45.986Z,28.97
2018-03-15T18:31:14.338Z,29.37
2018-03-15T18:33:41.757Z,28.60
2018-03-15T18:36:09.147Z,27.43
2018-03-15T18:38:36.559Z,25.93
2018-03-15T18:41:04.007Z,28.30
2018-03-15T18:43:31.423Z,28.37
2018-03-15T18:45:58.807Z,27.93
2018-03-15T18:48:26.325Z,28.50
2018-03-15T18:50:53.843Z,28.30
2018-03-15T18:53:21.264Z,27.00
2018-03-15T18:55:48.664Z,27.37
2018-03-15T18:58:16.076Z,26.73
2018-03-15T19:00:43.488Z,23.60
2018-03-15T19:03:10.885Z,28.20
2018-03-15T19:05:38.296Z,28.93
2018-03-15T19:08:05.834Z,27.83
2018-03-15T19:10:33.388Z,28.53
2018-03-15T19:13:00.808Z,28.23
2018-03-15T19:15:28.276Z,28.77
2018-03-15T19:17:55.662Z,29.83
2018-03-15T19:20:23.076Z,30.70
2018-03-15T19:22:50.491Z,32.20
2018-03-15T19:25:18.109Z,30.30
2018-03-15T19:27:45.535Z,31.80
2018-03-15T19:30:12.952Z,29.77
2018-03-15T19:32:40.584Z,31.33
2018-03-15T19:35:08.035Z,33.40
2018-03-15T19:37:35.443Z,31.50
2018-03-15T19:40:02.844Z,31.83
2018-03-15T19:42:30.243Z,33.93
2018-03-15T19:44:57.647Z,33.80
2018-03-15T19:47:25.055Z,34.87
2018-03-15T19:49:52.451Z,34.03
2018-03-15T19:52:20.015Z,36.37
2018-03-15T19:54:48.221Z,35.03
2018-03-15T19:57:15.636Z,34.90
2018-03-15T19:59:43.085Z,34.97
2018-03-15T20:02:10.534Z,34.17
2018-03-15T20:04:37.939Z,34.57
2018-03-15T20:07:05.807Z,33.13
2018-03-15T20:09:33.155Z,34.37
2018-03-15T20:12:00.576Z,35.37
2018-03-15T20:14:27.960Z,35.30
2018-03-15T20:16:55.365Z,35.23
2018-03-15T20:19:22.821Z,34.53
2018-03-15T20:21:50.184Z,35.17
2018-03-15T20:24:23.211Z,35.73
2018-03-15T20:26:50.605Z,35.10
2018-03-15T20:29:18.172Z,33.43
2018-03-15T20:31:45.613Z,35.20
2018-03-15T20:36:46.813Z,34.67
2018-03-15T20:39:19.926Z,33.07
2018-03-15T20:41:47.344Z,36.67
2018-03-15T20:44:14.777Z,34.97
2018-03-15T20:46:47.817Z,33.57
2018-03-15T20:49:15.248Z,35.87
2018-03-15T20:51:42.703Z,34.53
2018-03-15T20:54:10.483Z,31.77
2018-03-15T20:56:37.887Z,29.60
2018-03-15T20:59:05.286Z,34.10
2018-03-15T21:01:32.707Z,33.47
2018-03-15T21:04:00.091Z,34.33
2018-03-15T21:06:27.512Z,31.40
2018-03-15T21:08:54.925Z,33.30
2018-03-15T21:11:22.322Z,34.17
2018-03-15T21:13:49.746Z,34.63
2018-03-15T21:16:17.166Z,34.23
2018-03-15T21:18:44.618Z,35.60
2018-03-15T21:21:12.050Z,36.97
2018-03-15T21:23:39.461Z,37.07
2018-03-15T21:26:06.877Z,33.90
2018-03-15T21:28:34.314Z,34.73
2018-03-15T21:31:01.717Z,35.97
2018-03-15T21:33:29.236Z,36.67
2018-03-15T21:35:56.607Z,35.47
2018-03-15T21:38:24.008Z,33.93
2018-03-15T21:40:51.411Z,34.13
2018-03-15T21:43:18.819Z,33.27
2018-03-15T21:45:46.267Z,37.27
2018-03-15T21:48:13.684Z,35.90
2018-03-15T21:50:41.137Z,36.93
2018-03-15T21:53:08.540Z,37.10
2018-03-15T21:55:36.055Z,35.83
2018-03-15T21:58:03.447Z,36.37
2018-03-15T22:00:30.849Z,37.43
2018-03-15T22:02:58.250Z,39.10
2018-03-15T22:05:25.647Z,37.73
2018-03-15T22:07:53.056Z,37.47
2018-03-15T22:10:20.455Z,38.20
2018-03-15T22:12:47.902Z,36.27
2018-03-15T22:15:15.316Z,37.43
2018-03-15T22:17:42.825Z,38.43
2018-03-15T22:20:10.244Z,38.10
2018-03-15T22:22:37.639Z,37.23
2018-03-15T22:25:05.072Z,38.80
2018-03-15T22:27:32.459Z,38.93
2018-03-15T22:29:59.873Z,38.20
2018-03-15T22:32:27.273Z,39.57
2018-03-15T22:34:54.674Z,39.50
2018-03-15T22:37:22.085Z,39.43
2018-03-15T22:39:49.784Z,39.77
2018-03-15T22:42:17.187Z,38.73
2018-03-15T22:44:44.593Z,38.77
2018-03-15T22:47:12.046Z,39.50
2018-03-15T22:49:39.490Z,42.93
2018-03-15T22:52:06.895Z,40.50
2018-03-15T22:54:34.291Z,41.07
2018-03-15T22:57:01.700Z,39.63
2018-03-15T22:59:29.095Z,40.70
2018-03-15T23:01:56.494Z,40.83
2018-03-15T23:04:23.928Z,40.33
2018-03-15T23:06:51.333Z,41.53
2018-03-15T23:09:18.736Z,40.17
2018-03-15T23:11:46.119Z,40.97
2018-03-15T23:14:13.571Z,42.57
2018-03-15T23:16:40.974Z,41.53
2018-03-15T23:19:08.380Z,44.23
2018-03-15T23:21:36.859Z,42.80
2018-03-15T23:24:04.255Z,44.03
2018-03-15T23:26:31.671Z,45.20
2018-03-15T23:28:59.063Z,42.93
2018-03-15T23:31:26.471Z,41.50
2018-03-15T23:33:53.874Z,44.07
2018-03-15T23:36:21.511Z,45.70
2018-03-15T23:38:48.908Z,43.37
2018-03-15T23:41:16.321Z,44.33
2018-03-15T23:43:43.724Z,44.10
2018-03-15T23:46:11.156Z,44.33
2018-03-15T23:48:38.559Z,46.00
2018-03-15T23:51:05.972Z,44.30
2018-03-15T23:53:33.391Z,47.27
2018-03-15T23:56:00.786Z,47.20
2018-03-15T23:58:28.195Z,44.50
